createdAt,value
2022-11-03T00:01:38.443Z,13.43
2022-11-03T00:04:09.796Z,13.63
2022-11-03T00:06:37.116Z,16.17
2022-11-03T00:09:05.845Z,15.63
2022-11-03T00:11:34.304Z,18.70
2022-11-03T00:14:01.318Z,15.70
2022-11-03T00:16:28.436Z,13.67
2022-11-03T00:18:55.409Z,13.33
2022-11-03T00:21:22.557Z,13.00
2022-11-03T00:23:49.738Z,14.90
2022-11-03T00:26:36.417Z,15.77
2022-11-03T00:29:07.149Z,15.20
2022-11-03T00:31:35.083Z,14.47
2022-11-03T00:34:02.646Z,17.90
2022-11-03T00:36:31.202Z,12.07
2022-11-03T00:38:58.275Z,10.23
2022-11-03T00:41:25.733Z,16.80
2022-11-03T00:43:52.998Z,12.13
2022-11-03T00:46:20.967Z,16.10
2022-11-03T00:48:48.402Z,10.80
2022-11-03T00:51:16.538Z,14.77
2022-11-03T00:53:44.753Z,20.00
2022-11-03T00:56:16.636Z,9.23
2022-11-03T00:58:44.097Z,10.33
2022-11-03T01:01:12.839Z,16.23
2022-11-03T01:03:40.762Z,13.23
2022-11-03T01:06:31.255Z,15.33
2022-11-03T01:08:59.597Z,10.03
2022-11-03T01:11:44.784Z,17.93
2022-11-03T01:14:12.764Z,15.90
2022-11-03T01:16:39.902Z,13.43
2022-11-03T01:19:07.137Z,16.87
2022-11-03T01:21:34.313Z,11.30
2022-11-03T01:24:01.984Z,14.43
2022-11-03T01:26:29.051Z,14.53
2022-11-03T01:28:56.034Z,13.93
2022-11-03T01:31:24.597Z,14.50
2022-11-03T01:33:52.769Z,9.57
2022-11-03T01:36:20.276Z,16.43
2022-11-03T01:38:47.549Z,11.73
2022-11-03T01:41:18.987Z,19.60
2022-11-03T01:43:46.137Z,16.30
2022-11-03T01:46:19.021Z,15.80
2022-11-03T01:48:50.476Z,16.93
2022-11-03T01:51:19.576Z,13.60
2022-11-03T01:53:48.728Z,14.23
2022-11-03T01:56:17.033Z,14.63
2022-11-03T01:58:44.842Z,11.20
2022-11-03T02:01:12.654Z,12.93
2022-11-03T02:03:42.488Z,14.37
2022-11-03T02:06:09.852Z,11.83
2022-11-03T02:08:39.732Z,14.67
2022-11-03T02:11:26.710Z,10.53
2022-11-03T02:13:53.696Z,13.20
2022-11-03T02:16:21.320Z,14.80
2022-11-03T02:18:48.401Z,10.57
2022-11-03T02:21:21.454Z,11.70
2022-11-03T02:23:57.296Z,10.33
2022-11-03T02:26:24.299Z,13.60
2022-11-03T02:31:38.066Z,11.73
2022-11-03T02:34:05.009Z,12.20
2022-11-03T02:36:36.618Z,12.17
2022-11-03T02:39:06.029Z,13.30
2022-11-03T02:41:35.312Z,12.33
2022-11-03T02:44:03.737Z,13.57
2022-11-03T02:46:32.036Z,12.80
2022-11-03T02:48:59.165Z,14.43
2022-11-03T02:51:26.193Z,13.93
2022-11-03T02:54:13.422Z,12.43
2022-11-03T02:56:44.603Z,13.23
2022-11-03T02:59:14.059Z,14.27
2022-11-03T03:01:48.213Z,15.07
2022-11-03T03:04:31.217Z,17.10
2022-11-03T03:07:02.045Z,15.40
2022-11-03T03:09:38.118Z,18.87
2022-11-03T03:12:05.612Z,19.07
2022-11-03T03:14:37.816Z,21.10
2022-11-03T03:17:10.670Z,19.17
2022-11-03T03:19:51.241Z,19.37
2022-11-03T03:22:18.193Z,19.47
2022-11-03T03:24:48.896Z,19.60
2022-11-03T03:27:18.154Z,18.97
2022-11-03T03:29:48.146Z,25.67
2022-11-03T03:32:16.500Z,22.05
2022-11-03T03:34:44.209Z,21.13
2022-11-03T03:37:12.262Z,15.27
2022-11-03T03:39:40.814Z,18.10
2022-11-03T03:42:08.990Z,16.57
2022-11-03T03:44:36.784Z,17.43
2022-11-03T03:47:06.494Z,14.00
2022-11-03T03:49:33.470Z,16.67
2022-11-03T03:52:00.643Z,14.47
2022-11-03T03:54:27.668Z,15.47
2022-11-03T03:57:02.458Z,16.07
2022-11-03T03:59:29.495Z,17.47
2022-11-03T04:01:56.668Z,24.70
2022-11-03T04:04:23.988Z,17.03
2022-11-03T04:07:10.935Z,18.63
2022-11-03T04:09:37.919Z,14.43
2022-11-03T04:12:23.780Z,17.47
2022-11-03T04:15:09.587Z,18.37
2022-11-03T04:17:55.678Z,18.17
2022-11-03T04:20:41.594Z,18.83
2022-11-03T04:23:08.556Z,16.97
2022-11-03T04:25:35.603Z,17.70
2022-11-03T04:28:03.045Z,19.80
2022-11-03T04:30:30.109Z,21.43
2022-11-03T04:32:57.978Z,17.87
2022-11-03T04:35:26.056Z,19.77
2022-11-03T04:37:58.868Z,18.90
2022-11-03T04:40:25.933Z,18.23
2022-11-03T04:42:53.216Z,17.47
2022-11-03T04:45:24.842Z,15.57
2022-11-03T04:47:52.861Z,17.93
2022-11-03T04:50:20.701Z,17.10
2022-11-03T04:52:48.768Z,14.43
2022-11-03T04:55:16.821Z,16.23
2022-11-03T04:57:44.357Z,15.57
2022-11-03T05:00:14.737Z,13.37
2022-11-03T05:02:41.945Z,16.43
2022-11-03T05:05:19.449Z,14.63
2022-11-03T05:07:47.656Z,14.57
2022-11-03T05:10:19.373Z,16.80
2022-11-03T05:12:47.747Z,14.10
2022-11-03T05:15:29.203Z,15.57
2022-11-03T05:17:56.886Z,11.77
2022-11-03T05:20:35.547Z,12.50
2022-11-03T05:23:03.490Z,17.03
2022-11-03T05:25:30.569Z,11.63
2022-11-03T05:27:57.610Z,17.87
2022-11-03T05:30:24.613Z,15.60
2022-11-03T05:32:51.590Z,13.90
2022-11-03T05:35:21.388Z,13.67
2022-11-03T05:37:48.375Z,13.00
2022-11-03T05:40:21.490Z,15.30
2022-11-03T05:42:51.050Z,13.63
2022-11-03T05:45:25.676Z,12.83
2022-11-03T05:47:56.596Z,14.67
2022-11-03T05:50:25.393Z,15.10
2022-11-03T05:52:55.071Z,14.50
2022-11-03T05:55:26.951Z,14.07
2022-11-03T05:57:58.543Z,11.73
2022-11-03T06:00:30.198Z,12.63
2022-11-03T06:02:57.447Z,13.63
2022-11-03T06:05:25.381Z,12.70
2022-11-03T06:07:56.142Z,13.73
2022-11-03T06:10:31.878Z,14.80
2022-11-03T06:13:25.255Z,13.57
2022-11-03T06:15:58.665Z,16.83
2022-11-03T06:18:27.122Z,14.03
2022-11-03T06:20:56.600Z,13.73
2022-11-03T06:23:23.946Z,15.93
2022-11-03T06:25:52.324Z,14.50
2022-11-03T06:28:21.447Z,16.53
2022-11-03T06:30:49.114Z,16.37
2022-11-03T06:33:48.561Z,12.87
2022-11-03T06:36:23.146Z,18.47
2022-11-03T06:38:57.358Z,16.07
2022-11-03T06:41:25.961Z,17.30
2022-11-03T06:43:54.267Z,16.83
2022-11-03T06:46:23.803Z,13.87
2022-11-03T06:48:51.605Z,16.03
2022-11-03T06:51:22.575Z,15.70
2022-11-03T06:53:50.850Z,16.20
2022-11-03T06:56:20.795Z,15.07
2022-11-03T06:58:50.652Z,13.63
2022-11-03T07:01:22.645Z,17.47
2022-11-03T07:03:51.399Z,18.17
2022-11-03T07:06:21.577Z,16.27
2022-11-03T07:08:49.297Z,18.33
2022-11-03T07:11:20.161Z,21.07
2022-11-03T07:13:48.766Z,15.43
2022-11-03T07:16:30.414Z,18.10
2022-11-03T07:18:59.908Z,25.47
2022-11-03T07:21:35.428Z,15.50
2022-11-03T07:24:03.836Z,15.17
2022-11-03T07:26:30.869Z,15.80
2022-11-03T07:28:57.865Z,12.00
2022-11-03T07:31:26.124Z,11.53
2022-11-03T07:33:57.959Z,14.70
2022-11-03T07:36:26.227Z,15.50
2022-11-03T07:38:53.862Z,17.70
2022-11-03T07:41:21.673Z,13.03
2022-11-03T07:43:56.086Z,15.53
2022-11-03T07:46:23.868Z,13.50
2022-11-03T07:48:52.499Z,14.47
2022-11-03T07:51:32.101Z,16.47
2022-11-03T07:54:17.149Z,12.53
2022-11-03T07:56:47.091Z,12.07
2022-11-03T08:01:57.534Z,17.87
2022-11-03T08:04:35.730Z,12.27
2022-11-03T08:07:02.774Z,11.53
2022-11-03T08:09:29.738Z,14.00
2022-11-03T08:11:56.702Z,8.70
2022-11-03T08:14:23.721Z,8.23
2022-11-03T08:16:50.688Z,13.47
2022-11-03T08:19:17.709Z,11.20
2022-11-03T08:21:44.709Z,11.27
2022-11-03T08:24:11.707Z,13.07
2022-11-03T08:26:38.734Z,10.93
2022-11-03T08:29:05.728Z,11.67
2022-11-03T08:31:32.730Z,11.60
2022-11-03T08:33:59.725Z,12.40
2022-11-03T08:36:26.686Z,12.53
2022-11-03T08:38:53.646Z,12.20
2022-11-03T08:41:20.651Z,13.27
2022-11-03T08:43:47.611Z,13.30
2022-11-03T08:46:17.565Z,11.23
2022-11-03T08:48:45.862Z,9.37
2022-11-03T08:51:13.845Z,11.63
2022-11-03T08:53:44.504Z,13.23
2022-11-03T08:56:13.555Z,13.17
2022-11-03T08:58:43.988Z,11.90
2022-11-03T09:01:11.122Z,11.60
2022-11-03T09:03:38.283Z,11.57
2022-11-03T09:06:05.417Z,11.37
2022-11-03T09:11:19.340Z,11.43
2022-11-03T09:13:46.296Z,10.37
2022-11-03T09:16:13.283Z,11.53
2022-11-03T09:18:40.855Z,12.63
2022-11-03T09:21:08.751Z,10.97
2022-11-03T09:23:35.728Z,7.17
2022-11-03T09:26:02.704Z,5.50
2022-11-03T09:28:29.667Z,8.50
2022-11-03T09:30:56.642Z,5.87
2022-11-03T09:33:23.606Z,5.03
2022-11-03T09:35:50.585Z,7.13
2022-11-03T09:38:17.551Z,9.57
2022-11-03T09:40:44.614Z,7.80
2022-11-03T09:43:12.077Z,7.87
2022-11-03T09:45:39.478Z,9.35
2022-11-03T09:48:10.037Z,6.90
2022-11-03T09:50:37.704Z,5.90
2022-11-03T09:53:04.941Z,6.60
2022-11-03T09:55:32.824Z,4.50
2022-11-03T09:58:01.240Z,7.43
2022-11-03T10:00:28.340Z,3.60
2022-11-03T10:02:55.668Z,6.60
2022-11-03T10:05:29.010Z,4.43
2022-11-03T10:08:01.093Z,6.17
2022-11-03T10:10:28.424Z,4.57
2022-11-03T10:12:55.862Z,4.77
2022-11-03T10:15:24.330Z,7.63
2022-11-03T10:17:51.735Z,6.77
2022-11-03T10:20:20.943Z,8.00
2022-11-03T10:22:48.438Z,5.13
2022-11-03T10:25:27.374Z,5.85
2022-11-03T10:28:14.375Z,6.47
2022-11-03T10:31:13.189Z,4.50
2022-11-03T10:34:00.897Z,4.87
2022-11-03T10:36:29.390Z,5.07
2022-11-03T10:38:56.765Z,7.30
2022-11-03T10:41:28.106Z,7.93
2022-11-03T10:44:01.529Z,4.73
2022-11-03T10:46:49.211Z,8.67
2022-11-03T10:49:16.349Z,7.00
2022-11-03T10:51:44.032Z,7.43
2022-11-03T10:54:13.320Z,5.70
2022-11-03T10:56:40.281Z,6.13
2022-11-03T10:59:07.385Z,5.30
2022-11-03T11:01:34.529Z,5.23
2022-11-03T11:04:01.752Z,5.77
2022-11-03T11:06:30.657Z,6.30
2022-11-03T11:09:01.960Z,5.20
2022-11-03T11:11:29.202Z,7.00
2022-11-03T11:14:15.021Z,6.20
2022-11-03T11:17:00.787Z,5.57
2022-11-03T11:19:28.457Z,9.90
2022-11-03T11:21:55.418Z,6.00
2022-11-03T11:24:41.141Z,5.07
2022-11-03T11:27:26.838Z,6.20
2022-11-03T11:29:53.833Z,4.83
2022-11-03T11:32:39.272Z,7.00
2022-11-03T11:35:09.810Z,6.30
2022-11-03T11:37:38.486Z,8.20
2022-11-03T11:40:14.568Z,5.85
2022-11-03T11:43:00.220Z,6.60
2022-11-03T11:45:45.882Z,4.20
2022-11-03T11:48:18.996Z,10.13
2022-11-03T11:50:46.453Z,5.27
2022-11-03T11:53:14.752Z,6.23
2022-11-03T11:55:43.805Z,7.47
2022-11-03T11:58:24.845Z,9.07
2022-11-03T12:00:58.758Z,6.33
2022-11-03T12:03:30.687Z,6.70
2022-11-03T12:05:57.686Z,8.63
2022-11-03T12:08:28.520Z,5.33
2022-11-03T12:10:56.512Z,8.97
2022-11-03T12:13:37.433Z,9.53
2022-11-03T12:16:04.524Z,12.40
2022-11-03T12:18:40.037Z,8.80
2022-11-03T12:21:15.529Z,6.13
2022-11-03T12:23:46.378Z,9.53
2022-11-03T12:26:39.359Z,7.27
2022-11-03T12:29:06.505Z,7.43
2022-11-03T12:31:36.063Z,6.00
2022-11-03T12:34:04.111Z,5.00
2022-11-03T12:36:31.064Z,5.67
2022-11-03T12:38:58.141Z,7.83
2022-11-03T12:41:25.308Z,7.57
2022-11-03T12:43:55.108Z,4.03
2022-11-03T12:46:22.641Z,6.63
2022-11-03T12:48:49.982Z,5.23
2022-11-03T12:51:21.562Z,7.17
2022-11-03T12:53:48.800Z,5.97
2022-11-03T12:56:16.377Z,8.60
2022-11-03T12:58:43.450Z,7.07
2022-11-03T13:01:10.658Z,9.57
2022-11-03T13:03:38.166Z,8.93
2022-11-03T13:06:09.832Z,12.70
2022-11-03T13:08:37.204Z,8.73
2022-11-03T13:11:24.749Z,7.50
2022-11-03T13:13:51.872Z,6.50
2022-11-03T13:16:19.575Z,6.87
2022-11-03T13:18:46.612Z,5.77
2022-11-03T13:21:13.614Z,6.97
2022-11-03T13:23:41.319Z,8.27
2022-11-03T13:26:08.354Z,9.33
2022-11-03T13:28:35.401Z,7.65
2022-11-03T13:31:02.382Z,14.17
2022-11-03T13:33:29.386Z,15.43
2022-11-03T13:35:56.384Z,12.87
2022-11-03T13:38:23.511Z,12.27
2022-11-03T13:40:57.782Z,9.37
2022-11-03T13:43:25.538Z,8.93
2022-11-03T13:45:58.485Z,8.03
2022-11-03T13:51:16.621Z,10.00
2022-11-03T13:56:30.697Z,7.10
2022-11-03T14:01:45.271Z,8.60
2022-11-03T14:06:59.503Z,7.43
2022-11-03T14:09:26.543Z,10.90
2022-11-03T14:12:12.434Z,9.07
2022-11-03T14:14:39.396Z,9.27
2022-11-03T14:17:06.525Z,10.80
2022-11-03T14:19:39.708Z,10.90
2022-11-03T14:22:10.063Z,12.40
2022-11-03T14:24:37.086Z,12.23
2022-11-03T14:27:04.591Z,8.63
2022-11-03T14:29:31.578Z,15.70
2022-11-03T14:31:58.533Z,11.50
2022-11-03T14:34:25.569Z,12.97
2022-11-03T14:36:52.648Z,21.17
2022-11-03T14:39:19.675Z,19.53
2022-11-03T14:42:05.024Z,15.87
2022-11-03T14:44:33.118Z,11.30
2022-11-03T14:47:03.986Z,7.33
2022-11-03T14:49:31.674Z,10.17
2022-11-03T14:51:59.642Z,13.87
2022-11-03T14:54:26.958Z,9.17
2022-11-03T14:56:53.943Z,7.97
2022-11-03T14:59:21.410Z,9.07
2022-11-03T15:01:49.134Z,6.60
2022-11-03T15:04:16.175Z,12.50
2022-11-03T15:06:43.321Z,9.67
2022-11-03T15:09:10.471Z,9.30
2022-11-03T15:11:37.631Z,10.50
2022-11-03T15:14:04.772Z,8.47
2022-11-03T15:16:31.777Z,10.77
2022-11-03T15:18:59.224Z,6.67
2022-11-03T15:21:26.257Z,6.33
2022-11-03T15:26:40.148Z,8.13
2022-11-03T15:29:07.105Z,6.50
2022-11-03T15:31:34.052Z,6.57
2022-11-03T15:34:04.380Z,6.97
2022-11-03T15:36:34.716Z,8.17
2022-11-03T15:39:01.897Z,6.20
2022-11-03T15:41:28.954Z,8.50
2022-11-03T15:43:55.929Z,8.77
2022-11-03T15:46:22.925Z,6.23
2022-11-03T15:48:49.926Z,8.37
2022-11-03T15:51:16.971Z,9.43
2022-11-03T15:53:44.062Z,6.00
2022-11-03T15:56:11.065Z,5.17
2022-11-03T15:58:38.129Z,9.47
2022-11-03T16:01:05.702Z,7.57
2022-11-03T16:03:32.906Z,12.33
2022-11-03T16:05:59.982Z,7.70
2022-11-03T16:08:26.976Z,7.40
2022-11-03T16:10:58.007Z,9.73
2022-11-03T16:13:25.314Z,7.87
2022-11-03T16:15:54.343Z,6.17
2022-11-03T16:18:21.394Z,6.17
2022-11-03T16:20:48.362Z,7.93
2022-11-03T16:23:15.428Z,8.40
2022-11-03T16:25:42.410Z,6.13
2022-11-03T16:28:09.748Z,6.53
2022-11-03T16:30:38.392Z,6.30
2022-11-03T16:33:05.654Z,9.90
2022-11-03T16:35:32.618Z,5.37
2022-11-03T16:37:59.725Z,8.85
2022-11-03T16:40:26.887Z,5.33
2022-11-03T16:42:53.858Z,6.87
2022-11-03T16:45:22.765Z,10.37
2022-11-03T16:47:50.632Z,5.83
2022-11-03T16:50:18.113Z,5.60
2022-11-03T16:52:45.642Z,10.23
2022-11-03T16:55:12.981Z,5.50
2022-11-03T16:57:40.195Z,8.13
2022-11-03T17:00:08.854Z,5.50
2022-11-03T17:02:35.926Z,5.60
2022-11-03T17:05:03.391Z,5.17
2022-11-03T17:07:30.385Z,6.10
2022-11-03T17:09:57.691Z,8.17
2022-11-03T17:12:24.986Z,7.53
2022-11-03T17:14:55.633Z,6.50
2022-11-03T17:17:23.917Z,5.33
2022-11-03T17:19:50.989Z,6.13
2022-11-03T17:22:18.338Z,6.87
2022-11-03T17:24:45.314Z,5.77
2022-11-03T17:27:21.139Z,5.67
2022-11-03T17:29:49.760Z,9.07
2022-11-03T17:32:27.509Z,7.63
2022-11-03T17:34:54.631Z,11.33
2022-11-03T17:37:23.629Z,6.10
2022-11-03T17:39:50.797Z,6.10
2022-11-03T17:42:18.940Z,6.80
2022-11-03T17:44:50.020Z,8.43
2022-11-03T17:47:17.581Z,9.70
2022-11-03T17:49:45.058Z,16.23
2022-11-03T17:52:17.153Z,8.40
2022-11-03T17:54:44.194Z,6.77
2022-11-03T17:57:15.725Z,9.97
2022-11-03T17:59:42.770Z,43.27
2022-11-03T18:02:17.551Z,9.13
2022-11-03T18:04:44.872Z,15.20
2022-11-03T18:07:23.179Z,7.70
2022-11-03T18:09:50.481Z,6.23
2022-11-03T18:12:37.228Z,11.13
2022-11-03T18:15:05.823Z,14.73
2022-11-03T18:17:32.818Z,5.33
2022-11-03T18:19:59.879Z,8.23
2022-11-03T18:22:26.841Z,5.90
2022-11-03T18:24:53.822Z,10.60
2022-11-03T18:27:25.117Z,7.43
2022-11-03T18:29:52.498Z,7.67
2022-11-03T18:32:20.016Z,7.40
2022-11-03T18:34:47.037Z,10.20
2022-11-03T18:37:14.090Z,8.40
2022-11-03T18:39:41.210Z,10.63
2022-11-03T18:42:15.064Z,7.37
2022-11-03T18:44:42.865Z,9.20
2022-11-03T18:47:10.796Z,9.10
2022-11-03T18:49:38.344Z,11.13
2022-11-03T18:52:11.125Z,9.60
2022-11-03T18:54:40.538Z,7.93
2022-11-03T18:57:09.805Z,8.20
2022-11-03T18:59:38.164Z,9.17
2022-11-03T19:02:15.999Z,9.77
2022-11-03T19:04:43.133Z,9.13
2022-11-03T19:07:11.886Z,8.33
2022-11-03T19:09:38.965Z,16.90
2022-11-03T19:12:06.027Z,9.30
2022-11-03T19:14:35.210Z,21.30
2022-11-03T19:19:52.335Z,39.40
2022-11-03T19:22:20.288Z,9.10
2022-11-03T19:24:47.456Z,9.73
2022-11-03T19:27:19.085Z,9.07
2022-11-03T19:29:46.781Z,10.93
2022-11-03T19:32:17.028Z,15.47
2022-11-03T19:34:44.343Z,12.23
2022-11-03T19:37:11.416Z,11.00
2022-11-03T19:39:40.162Z,10.23
2022-11-03T19:42:28.498Z,8.43
2022-11-03T19:44:55.947Z,8.83
2022-11-03T19:47:25.026Z,8.80
2022-11-03T19:49:54.068Z,8.00
2022-11-03T19:52:24.917Z,9.33
2022-11-03T19:54:51.989Z,6.57
2022-11-03T19:57:18.993Z,8.07
2022-11-03T19:59:46.008Z,7.50
2022-11-03T20:02:13.372Z,6.93
2022-11-03T20:04:46.749Z,9.00
2022-11-03T20:07:14.711Z,11.50
2022-11-03T20:09:41.842Z,8.37
2022-11-03T20:12:11.238Z,7.57
2022-11-03T20:14:38.226Z,5.63
2022-11-03T20:17:11.435Z,7.23
2022-11-03T20:19:38.416Z,6.70
2022-11-03T20:22:06.260Z,6.50
2022-11-03T20:24:33.433Z,7.03
2022-11-03T20:27:01.036Z,6.20
2022-11-03T20:29:34.574Z,5.50
2022-11-03T20:32:01.975Z,6.30
2022-11-03T20:34:29.004Z,7.07
2022-11-03T20:36:57.986Z,6.73
2022-11-03T20:39:25.917Z,6.83
2022-11-03T20:41:54.215Z,8.17
2022-11-03T20:44:21.311Z,7.30
2022-11-03T20:46:48.394Z,6.97
2022-11-03T20:49:15.458Z,8.60
2022-11-03T20:51:46.278Z,6.27
2022-11-03T20:54:22.362Z,10.03
2022-11-03T20:56:49.341Z,6.97
2022-11-03T20:59:17.793Z,5.70
2022-11-03T21:01:45.483Z,5.37
2022-11-03T21:04:16.681Z,6.00
2022-11-03T21:06:43.872Z,4.87
2022-11-03T21:09:14.857Z,5.03
2022-11-03T21:11:43.308Z,4.40
2022-11-03T21:14:25.090Z,4.43
2022-11-03T21:17:10.683Z,6.00
2022-11-03T21:19:56.641Z,4.77
2022-11-03T21:22:51.317Z,5.03
2022-11-03T21:25:15.981Z,7.53
2022-11-03T21:27:43.003Z,5.60
2022-11-03T21:30:11.512Z,5.90
2022-11-03T21:32:38.499Z,5.37
2022-11-03T21:35:06.084Z,6.80
2022-11-03T21:37:33.132Z,6.80
2022-11-03T21:40:00.135Z,8.40
2022-11-03T21:42:45.482Z,7.23
2022-11-03T21:45:13.329Z,5.90
2022-11-03T21:48:00.754Z,5.43
2022-11-03T21:50:27.725Z,7.53
2022-11-03T21:52:54.735Z,7.07
2022-11-03T21:55:21.701Z,6.10
2022-11-03T21:57:48.674Z,6.77
2022-11-03T22:00:15.981Z,9.40
2022-11-03T22:02:42.967Z,8.53
2022-11-03T22:05:11.105Z,11.07
2022-11-03T22:07:38.294Z,7.43
2022-11-03T22:10:05.563Z,9.07
2022-11-03T22:12:32.541Z,8.10
2022-11-03T22:15:17.977Z,12.07
2022-11-03T22:17:45.099Z,8.77
2022-11-03T22:20:30.657Z,10.27
2022-11-03T22:23:19.154Z,9.13
2022-11-03T22:26:06.142Z,10.53
2022-11-03T22:28:33.155Z,7.33
2022-11-03T22:31:22.450Z,7.03
2022-11-03T22:34:08.440Z,8.43
2022-11-03T22:36:35.400Z,6.40
2022-11-03T22:39:21.041Z,6.80
2022-11-03T22:42:07.054Z,4.10
2022-11-03T22:44:52.905Z,3.70
2022-11-03T22:47:19.935Z,5.37
2022-11-03T22:49:46.945Z,4.10
2022-11-03T22:52:14.067Z,2.97
2022-11-03T22:54:41.036Z,2.20
2022-11-03T22:57:11.183Z,2.10
2022-11-03T22:59:39.681Z,2.27
2022-11-03T23:02:06.771Z,2.70
2022-11-03T23:04:33.866Z,2.73
2022-11-03T23:07:00.820Z,3.00
2022-11-03T23:09:27.810Z,3.83
2022-11-03T23:11:54.913Z,2.70
2022-11-03T23:14:22.964Z,1.97
2022-11-03T23:16:49.928Z,2.43
2022-11-03T23:19:35.471Z,2.63
2022-11-03T23:22:02.448Z,1.70
2022-11-03T23:24:48.320Z,1.70
2022-11-03T23:27:15.330Z,1.90
2022-11-03T23:29:42.310Z,2.10
2022-11-03T23:32:09.281Z,1.67
2022-11-03T23:34:36.257Z,1.70
2022-11-03T23:37:03.325Z,3.07
2022-11-03T23:39:30.302Z,1.63
2022-11-03T23:41:57.324Z,1.57
2022-11-03T23:44:24.310Z,1.83
2022-11-03T23:47:09.829Z,1.50
2022-11-03T23:49:36.801Z,1.57
2022-11-03T23:52:03.794Z,1.70
2022-11-03T23:54:30.795Z,1.40
2022-11-03T23:57:16.459Z,2.20
2022-11-03T23:59:46.441Z,1.70
